Paw Paw, West Virginia
Current Conditions -  °F | °C
As of 9:16 AM on Sunday 25 Jan 2015 (Local Time) from KCBE Reporting Station
Overcast Overcast  
Wind Chill: 33°   Ceiling: 4000
Heat Index: 37°   Visibility: 10mi
Dew Point: 32°   Wind: 6mph
Humidity: 81%   Direction: 190°S
Pressure: 29.82"   Gusts: NA
Location:  39.53°N, 78.46°W
Report Text: KCBE 251416Z AUTO 19005KT 10SM OVC040 03/00 A2982 RMK AO1
Loading
Personal Weather Stations






























Interactive Weather Map New forecast layout! Learn more

10-Day Weather Forecast

Advertisements
Track Severe Weather on mobile